Hauptseite
METAR-TAF:

METAR-TAF

Flughäfen :

Flughafen Funafuti

Funafuti, Tuvalu

Breite: 08-31S, Länge: 179-13E, Höhe: 1 m

Beobachtung

Neuester Wetterbericht von vor 42 Minuten, um 18:00 UTC
Wind 4 kt aus Ost
Temperatur 27°C
Luftfeuchtigkeit 89%
Luftdruck 1010 hPa
Sichtweite 10 km oder mehr
Leicht bewölkt in der Höhe von 1700 ft, Kumulonimbus.
Durchbrochene Bewölkung in der Höhe von 30000 ft

METAR: NGFU 171800Z 10004KT 9999 FEW017CB BKN300 27/25 Q1010

Zeit: 06:42 (18:42 UTC)

Prognose

Neuester Wetterbericht von vor 1 Stunde und 32 Minuten, um 17:10 UTC
Gültige Prognose vom 17 um 18 UTC bis 18 um 18 UTC
Wind 5 kt aus Südost
Sichtweite 10 km oder mehr
Leicht bewölkt in der Höhe von 2000 ft

TAF: NGFU 171710Z 1718/1818 13005KT 9999 FEW020

Wetterbeobachtungen und Prognosen von mehr als 4000 Flughäfen (METAR und TAF Bericht).

Die verfügbaren Stationen werden durch gelbe und rote Markierungen auf der Karte dargestellt.

Führen Sie die Maus auf sie, um den Namen der Station zu sehen.

Darauf klicken, um die Beobachtung von Wetterbeobachtungen und Prognosen zu sehen.

Um die Karte zu ändern : klicken Sie auf den grünen Tasten mit einem schwarzen Kreuz Zum Vergrößern, auf den grünen Button mit einem Gedankenstrich zu verkleinern, oder auf die grünen Pfeile für benachbarte Karten.


METAR-TAF: